Time;durP1;ratioP1;P1;durP2;ratioP2;P2;SDS_P1;SDS_P2;PMS_P1;PMS_P2;Temp;Humidity;BMP_temperature;BMP_pressure;BME280_temperature;BME280_humidity;BME280_pressure;Samples;Min_cycle;Max_cycle;Signal;HPM_P1;HPM_P2
2021/07/17 00:02:16;;;;;;;;;;;;;;;20.45;100.00;99143.56;1770730;81;20740;-68
2021/07/17 00:04:44;;;;;;;;;;;;;;;20.39;100.00;99140.81;1770396;81;21089;-68
2021/07/17 00:07:12;;;;;;;;;;;;;;;20.35;100.00;99139.29;1770709;80;20196;-69
2021/07/17 00:09:38;;;;;;;;;;;;;;;20.31;100.00;99148.48;1770364;80;20072;-69
2021/07/17 00:12:07;;;;;;;;;;;;;;;20.28;100.00;99145.81;1770646;80;20169;-69
2021/07/17 00:14:35;;;;;;;;;;;;;;;20.28;100.00;99144.45;1770467;80;20112;-69
2021/07/17 00:17:07;;;;;;;;;;;;;;;20.27;100.00;99145.59;1770515;81;21110;-68
2021/07/17 00:19:35;;;;;;;;;;;;;;;20.23;100.00;99144.64;1770281;80;20718;-69
2021/07/17 00:22:03;;;;;;;;;;;;;;;20.22;100.00;99149.08;1770539;81;20439;-68
2021/07/17 00:24:31;;;;;;;;;;;;;;;20.18;100.00;99147.55;1770241;81;20136;-68
2021/07/17 00:26:59;;;;;;;;;;;;;;;20.13;100.00;99143.08;1770748;80;20577;-68
2021/07/17 00:29:26;;;;;;;;;;;;;;;20.12;100.00;99138.77;1770393;80;21167;-68
2021/07/17 00:31:54;;;;;;;;;;;;;;;20.13;100.00;99143.65;1770592;81;20432;-68
2021/07/17 00:34:20;;;;;;;;;;;;;;;20.12;100.00;99144.78;1770257;80;20101;-68
2021/07/17 00:36:47;;;;;;;;;;;;;;;20.10;100.00;99147.83;1770256;81;20124;-69
2021/07/17 00:39:16;;;;;;;;;;;;;;;20.08;100.00;99148.71;1770344;80;20096;-69
2021/07/17 00:41:43;;;;;;;;;;;;;;;20.08;100.00;99146.56;1770317;81;21152;-69
2021/07/17 00:44:09;;;;;;;;;;;;;;;20.04;100.00;99145.06;1770328;80;20147;-69
2021/07/17 00:46:37;;;;;;;;;;;;;;;20.00;100.00;99144.11;1770315;81;20175;-69
2021/07/17 00:49:03;;;;;;;;;;;;;;;19.97;100.00;99142.61;1770374;81;20081;-69
2021/07/17 00:51:31;;;;;;;;;;;;;;;19.91;100.00;99142.77;1748808;81;20077;-68
2021/07/17 00:53:58;;;;;;;;;;;;;;;19.90;100.00;99138.45;1770217;80;21108;-69
2021/07/17 00:56:25;;;;;;;;;;;;;;;19.86;100.00;99138.86;1770209;81;20073;-69
2021/07/17 00:58:53;;;;;;;;;;;;;;;19.87;100.00;99136.39;1770247;81;20437;-69
2021/07/17 01:01:20;;;;;;;;;;;;;;;19.90;100.00;99134.37;1770243;80;20117;-68
2021/07/17 01:03:47;;;;;;;;;;;;;;;19.94;100.00;99139.16;1770523;81;20550;-68
2021/07/17 01:06:14;;;;;;;;;;;;;;;19.91;100.00;99145.48;1770222;81;21902;-69
2021/07/17 01:08:40;;;;;;;;;;;;;;;19.86;100.00;99147.03;1770244;81;20097;-68
2021/07/17 01:11:07;;;;;;;;;;;;;;;19.79;100.00;99141.84;1770350;81;20112;-68
2021/07/17 01:13:35;;;;;;;;;;;;;;;19.72;100.00;99145.09;1770403;80;20085;-68
2021/07/17 01:16:02;;;;;;;;;;;;;;;19.68;100.00;99146.28;1770482;80;20112;-69
2021/07/17 01:18:30;;;;;;;;;;;;;;;19.65;100.00;99150.20;1770225;81;22353;-68
2021/07/17 01:20:57;;;;;;;;;;;;;;;19.61;100.00;99147.87;1770085;80;20151;-68
2021/07/17 01:23:24;;;;;;;;;;;;;;;19.58;100.00;99147.17;1748743;81;20117;-68
2021/07/17 01:25:52;;;;;;;;;;;;;;;19.57;100.00;99140.11;1770426;81;20093;-68
2021/07/17 01:28:18;;;;;;;;;;;;;;;19.57;100.00;99142.83;1770436;80;20117;-68
2021/07/17 01:30:45;;;;;;;;;;;;;;;19.52;100.00;99142.44;1770216;81;21219;-68
2021/07/17 01:33:12;;;;;;;;;;;;;;;19.50;100.00;99139.27;1770290;81;20138;-68
2021/07/17 01:35:39;;;;;;;;;;;;;;;19.47;100.00;99135.80;1762685;81;20237;-68
2021/07/17 01:38:05;;;;;;;;;;;;;;;19.44;100.00;99135.89;1759964;81;20090;-68
2021/07/17 01:40:32;;;;;;;;;;;;;;;19.43;100.00;99133.51;1760188;81;20121;-68
2021/07/17 01:42:59;;;;;;;;;;;;;;;19.39;100.00;99133.34;1760079;81;21226;-67
2021/07/17 01:45:40;;;;;;;;;;;;;;;19.38;100.00;99136.41;1760005;81;20098;-68
2021/07/17 01:48:08;;;;;;;;;;;;;;;19.37;100.00;99132.85;1760055;80;20674;-68
2021/07/17 01:50:36;;;;;;;;;;;;;;;19.35;100.00;99141.89;1760023;81;20413;-69
2021/07/17 01:53:04;;;;;;;;;;;;;;;19.33;100.00;99131.92;1760166;81;20117;-69
2021/07/17 01:55:31;;;;;;;;;;;;;;;19.32;100.00;99130.30;1760123;81;21179;-69
2021/07/17 01:57:57;;;;;;;;;;;;;;;19.32;100.00;99132.23;1760110;81;20492;-69
2021/07/17 02:00:26;;;;;;;;;;;;;;;19.30;100.00;99128.46;1759973;81;20174;-70
2021/07/17 02:02:53;;;;;;;;;;;;;;;19.29;100.00;99125.52;1760359;81;20507;-69
2021/07/17 02:05:21;;;;;;;;;;;;;;;19.27;100.00;99125.03;1759998;81;20125;-69
2021/07/17 02:07:47;;;;;;;;;;;;;;;19.26;100.00;99126.95;1760395;81;21113;-68
2021/07/17 02:10:16;;;;;;;;;;;;;;;19.26;100.00;99122.08;1759996;80;20434;-69
2021/07/17 02:13:11;;;;;;;;;;;;;;;19.25;100.00;99122.62;1760193;81;20176;-69
2021/07/17 02:15:50;;;;;;;;;;;;;;;19.22;100.00;99121.12;1760089;81;20101;-69
2021/07/17 02:18:34;;;;;;;;;;;;;;;19.17;100.00;99119.36;1760085;81;20532;-68
2021/07/17 02:21:03;;;;;;;;;;;;;;;19.17;100.00;99118.56;1760048;81;21107;-70
2021/07/17 02:23:29;;;;;;;;;;;;;;;19.17;100.00;99116.63;1759298;80;20180;-70
2021/07/17 02:25:56;;;;;;;;;;;;;;;19.20;100.00;99124.14;1759855;81;20149;-68
2021/07/17 02:28:22;;;;;;;;;;;;;;;19.23;100.00;99119.45;1760030;81;20499;-69
2021/07/17 02:30:51;;;;;;;;;;;;;;;19.27;100.00;99123.67;1759921;81;20101;-70
2021/07/17 02:33:18;;;;;;;;;;;;;;;19.28;100.00;99126.64;1760084;81;21193;-70
2021/07/17 02:35:47;;;;;;;;;;;;;;;19.30;100.00;99127.66;1766169;81;20424;-69
2021/07/17 02:38:15;;;;;;;;;;;;;;;19.32;100.00;99129.52;1769936;81;20097;-69
2021/07/17 02:40:41;;;;;;;;;;;;;;;19.38;100.00;99133.68;1748543;81;20081;-69
2021/07/17 02:43:08;;;;;;;;;;;;;;;19.39;100.00;99127.89;1770277;80;20140;-68
2021/07/17 02:45:35;;;;;;;;;;;;;;;19.42;100.00;99125.88;1769715;81;21115;-69
2021/07/17 02:48:02;;;;;;;;;;;;;;;19.47;100.00;99125.71;1769608;80;20097;-69
2021/07/17 02:50:29;;;;;;;;;;;;;;;19.52;100.00;99117.14;1769680;81;20096;-70
2021/07/17 02:55:18;;;;;;;;;;;;;;;19.65;100.00;99122.98;1854556;77;20221;-69
2021/07/17 02:57:45;;;;;;;;;;;;;;;19.65;100.00;99130.58;1822309;78;20109;-70
2021/07/17 03:00:14;;;;;;;;;;;;;;;19.72;100.00;99130.12;1822431;78;21158;-69
2021/07/17 03:02:40;;;;;;;;;;;;;;;19.81;100.00;99130.07;1822168;78;20141;-68
2021/07/17 03:05:10;;;;;;;;;;;;;;;19.90;100.00;99128.12;1822161;78;20164;-69
2021/07/17 03:07:36;;;;;;;;;;;;;;;20.00;100.00;99125.61;1822215;78;20148;-68
2021/07/17 03:10:05;;;;;;;;;;;;;;;20.08;100.00;99126.92;1822197;78;20106;-70
2021/07/17 03:12:31;;;;;;;;;;;;;;;20.20;100.00;99122.14;1822629;78;21142;-68
2021/07/17 03:14:58;;;;;;;;;;;;;;;20.34;100.00;99126.80;1822283;78;20093;-69
2021/07/17 03:17:25;;;;;;;;;;;;;;;20.46;100.00;99126.10;1822615;78;20402;-69
2021/07/17 03:19:51;;;;;;;;;;;;;;;20.55;100.00;99122.80;1822321;78;20081;-69
2021/07/17 03:22:18;;;;;;;;;;;;;;;20.64;100.00;99130.11;1822265;78;20081;-69
2021/07/17 03:24:44;;;;;;;;;;;;;;;20.74;100.00;99126.98;1822508;78;21132;-69
2021/07/17 03:27:12;;;;;;;;;;;;;;;20.81;100.00;99123.16;1822530;78;20129;-69
2021/07/17 03:29:38;;;;;;;;;;;;;;;20.89;100.00;99123.66;1822655;78;20425;-69
2021/07/17 03:32:07;;;;;;;;;;;;;;;21.00;100.00;99117.25;1822536;78;20066;-68
2021/07/17 03:34:33;;;;;;;;;;;;;;;21.11;100.00;99121.72;1822872;78;20086;-68
2021/07/17 03:37:03;;;;;;;;;;;;;;;21.31;100.00;99122.28;1822374;78;20113;-68
2021/07/17 03:39:30;;;;;;;;;;;;;;;21.53;100.00;99128.50;1805404;78;20168;-69
2021/07/17 03:41:56;;;;;;;;;;;;;;;21.67;100.00;99128.20;1822278;78;20495;-69
2021/07/17 03:44:26;;;;;;;;;;;;;;;21.80;100.00;99129.81;1822201;78;20744;-69
2021/07/17 03:46:52;;;;;;;;;;;;;;;22.02;100.00;99129.41;1822112;78;20969;-69
2021/07/17 03:49:19;;;;;;;;;;;;;;;22.17;100.00;99124.38;1822326;78;21155;-70
2021/07/17 03:51:46;;;;;;;;;;;;;;;22.24;100.00;99128.75;1822448;78;20102;-68
2021/07/17 03:54:13;;;;;;;;;;;;;;;22.31;100.00;99126.24;1822092;78;20078;-69
2021/07/17 03:56:40;;;;;;;;;;;;;;;22.43;100.00;99133.65;1822018;78;20148;-68
2021/07/17 03:59:07;;;;;;;;;;;;;;;22.65;100.00;99134.53;1822173;78;20098;-70
2021/07/17 04:01:36;;;;;;;;;;;;;;;22.83;100.00;99133.71;1822551;78;20937;-69
2021/07/17 04:04:04;;;;;;;;;;;;;;;22.97;100.00;99133.31;1822240;78;20133;-70
2021/07/17 04:06:34;;;;;;;;;;;;;;;23.14;100.00;99134.22;1821869;78;20117;-70
2021/07/17 04:09:02;;;;;;;;;;;;;;;23.30;100.00;99126.28;1805665;78;20106;-70
2021/07/17 04:11:30;;;;;;;;;;;;;;;23.48;100.00;99128.70;1821826;78;20094;-70
2021/07/17 04:13:56;;;;;;;;;;;;;;;23.60;100.00;99134.70;1821713;78;21146;-70
2021/07/17 04:16:23;;;;;;;;;;;;;;;23.68;100.00;99140.58;1821723;78;20082;-69
2021/07/17 04:18:55;;;;;;;;;;;;;;;23.75;100.00;99141.59;1821750;78;20152;-69
2021/07/17 04:21:23;;;;;;;;;;;;;;;23.87;100.00;99146.20;1821686;78;20304;-69
2021/07/17 04:23:49;;;;;;;;;;;;;;;24.05;100.00;99148.01;1821763;78;20165;-69
2021/07/17 04:26:19;;;;;;;;;;;;;;;24.23;100.00;99147.09;1789951;78;21553;-69
2021/07/17 04:28:45;;;;;;;;;;;;;;;24.31;100.00;99149.43;1822066;78;20113;-69
2021/07/17 04:31:12;;;;;;;;;;;;;;;24.46;100.00;99158.82;1821706;78;20117;-70
2021/07/17 04:33:40;;;;;;;;;;;;;;;24.57;100.00;99162.04;1821863;78;20432;-70
2021/07/17 04:36:10;;;;;;;;;;;;;;;24.71;100.00;99164.29;1821780;78;20547;-70
2021/07/17 04:38:39;;;;;;;;;;;;;;;24.87;100.00;99173.88;1822037;78;21117;-70
2021/07/17 04:41:06;;;;;;;;;;;;;;;24.90;100.00;99173.14;1821864;78;20205;-70
2021/07/17 04:43:32;;;;;;;;;;;;;;;24.98;100.00;99170.77;1821959;78;20133;-71
2021/07/17 04:45:59;;;;;;;;;;;;;;;25.08;100.00;99165.28;1821403;78;20098;-69
2021/07/17 04:48:26;;;;;;;;;;;;;;;25.06;100.00;99168.17;1822123;78;20093;-70
2021/07/17 04:50:53;;;;;;;;;;;;;;;25.00;100.00;99168.45;1821687;78;21165;-70
2021/07/17 04:53:20;;;;;;;;;;;;;;;25.04;100.00;99168.55;1821875;78;20156;-70
2021/07/17 04:55:47;;;;;;;;;;;;;;;25.10;100.00;99169.05;1821523;78;20117;-70
2021/07/17 04:58:14;;;;;;;;;;;;;;;25.18;100.00;99167.48;1821521;78;20074;-70
2021/07/17 05:00:44;;;;;;;;;;;;;;;25.29;100.00;99167.72;1821825;78;20082;-69
2021/07/17 05:03:12;;;;;;;;;;;;;;;25.41;100.00;99166.19;1790517;78;21145;-70
2021/07/17 05:05:40;;;;;;;;;;;;;;;25.52;100.00;99171.09;1821769;78;20109;-69
2021/07/17 05:08:07;;;;;;;;;;;;;;;25.61;100.00;99172.45;1821737;78;20500;-70
2021/07/17 05:10:33;;;;;;;;;;;;;;;25.72;100.00;99174.61;1821435;78;20070;-69
2021/07/17 05:13:15;;;;;;;;;;;;;;;25.87;100.00;99173.17;1821792;78;20153;-69
2021/07/17 05:15:41;;;;;;;;;;;;;;;26.13;100.00;99175.76;1821718;78;21145;-70
2021/07/17 05:18:13;;;;;;;;;;;;;;;26.46;100.00;99179.84;1821536;78;20169;-70
2021/07/17 05:20:42;;;;;;;;;;;;;;;26.67;100.00;99181.55;1821799;78;20415;-70
2021/07/17 05:23:11;;;;;;;;;;;;;;;26.77;100.00;99175.98;1821299;78;20082;-70
2021/07/17 05:25:38;;;;;;;;;;;;;;;26.85;100.00;99182.38;1821881;78;20129;-69
2021/07/17 05:28:05;;;;;;;;;;;;;;;27.08;100.00;99184.48;1821701;78;21203;-69
2021/07/17 05:30:34;;;;;;;;;;;;;;;27.20;100.00;99189.00;1821863;78;20409;-69
2021/07/17 05:33:01;;;;;;;;;;;;;;;27.36;100.00;99182.71;1821646;78;20113;-70
2021/07/17 05:35:28;;;;;;;;;;;;;;;27.53;100.00;99184.66;1821544;78;20078;-70
2021/07/17 05:37:57;;;;;;;;;;;;;;;27.49;100.00;99184.63;1821839;78;20093;-69
2021/07/17 05:40:24;;;;;;;;;;;;;;;27.66;100.00;99185.99;1821339;78;21151;-69
2021/07/17 05:42:51;;;;;;;;;;;;;;;27.97;100.00;99194.39;1821711;78;20160;-71
2021/07/17 05:45:18;;;;;;;;;;;;;;;28.15;100.00;99184.92;1805723;78;20106;-71
2021/07/17 05:47:46;;;;;;;;;;;;;;;28.14;100.00;99186.67;1821543;78;20070;-70
2021/07/17 05:50:12;;;;;;;;;;;;;;;28.21;100.00;99190.88;1821657;78;20117;-70
2021/07/17 05:52:38;;;;;;;;;;;;;;;28.62;100.00;99188.06;1821683;78;21092;-69
2021/07/17 05:55:06;;;;;;;;;;;;;;;28.88;100.00;99193.93;1824222;78;20093;-72
2021/07/17 05:57:34;;;;;;;;;;;;;;;28.95;100.00;99198.71;1817482;78;20096;-71
2021/07/17 06:00:04;;;;;;;;;;;;;;;28.92;100.00;99194.75;1806214;78;20378;-71
2021/07/17 06:02:33;;;;;;;;;;;;;;;29.25;100.00;99193.77;1806429;78;20435;-70
2021/07/17 06:04:59;;;;;;;;;;;;;;;29.41;100.00;99189.28;1808798;78;21073;-72
2021/07/17 06:07:28;;;;;;;;;;;;;;;29.58;100.00;99196.05;1806460;78;20187;-73
2021/07/17 06:09:56;;;;;;;;;;;;;;;29.74;100.00;99194.33;1802896;78;20456;-76
2021/07/17 06:12:25;;;;;;;;;;;;;;;29.77;100.00;99196.34;1807589;78;20136;-75
2021/07/17 06:14:55;;;;;;;;;;;;;;;29.63;99.40;99189.35;1808370;78;20427;-75
2021/07/17 06:17:24;;;;;;;;;;;;;;;29.63;96.32;99188.75;1772288;79;23143;-76
2021/07/17 06:19:51;;;;;;;;;;;;;;;29.75;98.24;99191.78;1806330;78;20120;-73
2021/07/17 06:22:18;;;;;;;;;;;;;;;30.00;95.41;99198.73;1794401;78;20145;-76
2021/07/17 06:24:47;;;;;;;;;;;;;;;30.24;90.64;99204.69;1802116;78;20449;-77
2021/07/17 06:27:15;;;;;;;;;;;;;;;30.42;85.12;99201.34;1804785;78;20160;-72
2021/07/17 06:29:44;;;;;;;;;;;;;;;30.52;85.97;99199.16;1804059;78;20112;-74
2021/07/17 06:36:04;;;;;;;;;;;;;;;30.51;82.70;99206.50;1733684;81;20124;-72
2021/07/17 06:39:20;;;;;;;;;;;;;;;30.66;82.99;99203.11;1727180;81;20215;-73
2021/07/17 06:41:48;;;;;;;;;;;;;;;30.95;81.71;99204.66;1736437;81;20166;-74
2021/07/17 06:44:17;;;;;;;;;;;;;;;30.99;77.17;99206.02;1738827;81;21153;-76
2021/07/17 06:46:47;;;;;;;;;;;;;;;30.80;74.52;99207.25;1738302;81;20147;-74
2021/07/17 06:49:13;;;;;;;;;;;;;;;30.60;75.83;99199.97;1736198;81;20141;-74
2021/07/17 06:51:40;;;;;;;;;;;;;;;30.78;74.74;99207.45;1738556;81;20154;-73
2021/07/17 06:54:06;;;;;;;;;;;;;;;30.79;74.32;99203.48;1739004;81;20141;-74
2021/07/17 06:56:34;;;;;;;;;;;;;;;31.09;73.59;99205.80;1677402;84;21078;-73
2021/07/17 06:59:02;;;;;;;;;;;;;;;31.40;71.08;99206.30;1701064;83;20112;-73
2021/07/17 07:01:29;;;;;;;;;;;;;;;31.67;70.46;99212.71;1699293;83;20231;-72
2021/07/17 07:03:56;;;;;;;;;;;;;;;32.05;63.61;99210.14;1677877;84;20160;-74
2021/07/17 07:06:26;;;;;;;;;;;;;;;31.86;65.91;99209.25;1699495;83;20477;-74
2021/07/17 07:08:53;;;;;;;;;;;;;;;31.88;63.88;99212.41;1702408;83;21549;-73
2021/07/17 07:11:19;;;;;;;;;;;;;;;31.91;62.95;99216.53;1699441;83;20148;-74
2021/07/17 07:13:46;;;;;;;;;;;;;;;31.94;61.77;99215.75;1736588;81;20240;-74
2021/07/17 07:16:13;;;;;;;;;;;;;;;31.97;64.04;99218.31;1737473;82;20151;-73
2021/07/17 07:18:45;;;;;;;;;;;;;;;32.12;59.80;99217.61;1736284;82;20103;-73
2021/07/17 07:21:13;;;;;;;;;;;;;;;32.05;58.57;99224.02;1737281;82;21460;-73
2021/07/17 07:23:40;;;;;;;;;;;;;;;32.41;55.91;99220.38;1737558;82;20311;-74
2021/07/17 07:26:07;;;;;;;;;;;;;;;32.49;52.44;99220.31;1737683;82;20123;-73
2021/07/17 07:28:34;;;;;;;;;;;;;;;32.68;54.34;99222.52;1720394;83;20089;-74
2021/07/17 07:31:03;;;;;;;;;;;;;;;32.95;55.05;99223.25;1737885;81;20178;-74
2021/07/17 07:33:29;;;;;;;;;;;;;;;33.15;54.36;99218.70;1709756;82;22737;-74
2021/07/17 07:35:57;;;;;;;;;;;;;;;33.54;53.14;99225.78;1737516;82;20166;-74
2021/07/17 07:38:24;;;;;;;;;;;;;;;33.67;52.07;99227.42;1737988;82;20079;-74
2021/07/17 07:40:52;;;;;;;;;;;;;;;33.69;52.56;99221.62;1744655;81;20085;-75
2021/07/17 07:43:32;;;;;;;;;;;;;;;33.41;49.37;99224.73;1745091;81;20290;-76
2021/07/17 07:46:02;;;;;;;;;;;;;;;33.44;47.20;99219.72;1758722;81;21126;-74
2021/07/17 07:49:01;;;;;;;;;;;;;;;33.27;47.89;99227.08;1763747;80;20164;-75
2021/07/17 07:51:49;;;;;;;;;;;;;;;33.19;51.78;99219.42;1734419;81;20200;-75
2021/07/17 07:54:15;;;;;;;;;;;;;;;33.41;51.35;99221.34;1767821;80;20141;-72
2021/07/17 07:56:44;;;;;;;;;;;;;;;33.77;50.00;99218.13;1769502;81;20467;-74
2021/07/17 07:59:11;;;;;;;;;;;;;;;33.63;49.18;99224.67;1771584;81;22190;-75
2021/07/17 08:01:40;;;;;;;;;;;;;;;33.47;50.44;99215.52;1769086;81;20152;-74
2021/07/17 08:04:11;;;;;;;;;;;;;;;33.53;48.32;99222.18;1770224;81;20219;-73
2021/07/17 08:06:45;;;;;;;;;;;;;;;33.48;48.61;99220.48;1768229;81;20089;-76
2021/07/17 08:09:34;;;;;;;;;;;;;;;33.80;48.82;99217.89;1772060;81;20133;-75
2021/07/17 08:11:44;;;;;;;;;;;;;;;34.20;47.79;99218.91;1768881;81;21214;-75
2021/07/17 08:14:11;;;;;;;;;;;;;;;34.32;46.75;99223.89;1770421;81;20173;-74
2021/07/17 08:16:43;;;;;;;;;;;;;;;34.36;45.38;99223.81;1743858;81;20143;-75
2021/07/17 08:19:11;;;;;;;;;;;;;;;34.71;46.32;99228.00;1724529;81;20086;-72
2021/07/17 08:21:44;;;;;;;;;;;;;;;34.76;44.48;99222.55;1771919;81;20180;-74
2021/07/17 08:24:27;;;;;;;;;;;;;;;34.55;45.76;99222.31;1766294;81;22722;-74
2021/07/17 08:27:06;;;;;;;;;;;;;;;34.56;45.27;99221.87;1767220;81;20773;-76
2021/07/17 08:29:34;;;;;;;;;;;;;;;34.52;47.51;99220.35;1769730;80;20169;-74
2021/07/17 08:32:08;;;;;;;;;;;;;;;34.89;46.08;99230.48;1772689;81;20180;-73
2021/07/17 08:34:35;;;;;;;;;;;;;;;35.03;44.09;99225.22;1734779;81;20128;-74
2021/07/17 08:37:02;;;;;;;;;;;;;;;35.20;44.62;99224.73;1735922;82;21817;-74
2021/07/17 08:39:33;;;;;;;;;;;;;;;35.27;43.22;99225.20;1734055;82;20156;-75
2021/07/17 08:42:27;;;;;;;;;;;;;;;35.27;43.78;99225.20;1731479;82;20104;-74
2021/07/17 08:44:49;;;;;;;;;;;;;;;35.40;42.62;99231.69;1727809;82;20517;-75
2021/07/17 08:47:16;;;;;;;;;;;;;;;35.78;41.58;99230.70;1731013;82;20208;-76
2021/07/17 08:49:44;;;;;;;;;;;;;;;35.88;42.68;99227.48;1732723;82;21152;-75
2021/07/17 08:52:11;;;;;;;;;;;;;;;35.99;41.08;99225.25;1732168;82;20187;-75
2021/07/17 08:54:42;;;;;;;;;;;;;;;35.69;40.96;99230.50;1733962;82;20200;-73
2021/07/17 08:57:10;;;;;;;;;;;;;;;35.56;41.54;99221.98;1728162;83;20670;-73
2021/07/17 08:59:39;;;;;;;;;;;;;;;35.56;41.79;99226.78;1701464;83;20133;-75
2021/07/17 09:02:12;;;;;;;;;;;;;;;35.62;40.70;99234.84;1727778;83;21126;-76
2021/07/17 09:04:46;;;;;;;;;;;;;;;35.88;40.78;99226.70;1724111;83;20159;-78
2021/07/17 09:07:18;;;;;;;;;;;;;;;35.95;40.91;99225.93;1725240;81;20179;-78
2021/07/17 09:09:59;;;;;;;;;;;;;;;35.68;40.69;99219.16;1730118;83;20216;-76
2021/07/17 09:12:28;;;;;;;;;;;;;;;35.23;41.48;99215.52;1729509;83;20105;-77
2021/07/17 09:15:04;;;;;;;;;;;;;;;35.02;41.80;99218.09;1727679;83;21089;-78
2021/07/17 09:17:36;;;;;;;;;;;;;;;34.64;42.20;99216.98;1704382;83;20128;-76
2021/07/17 09:23:05;;;;;;;;;;;;;;;34.68;43.22;99216.32;1587112;87;20696;-77
2021/07/17 09:25:40;;;;;;;;;;;;;;;34.36;44.63;99212.06;1694525;84;20122;-73
2021/07/17 09:28:24;;;;;;;;;;;;;;;33.71;47.17;99205.88;1693355;84;21159;-74
2021/07/17 09:30:54;;;;;;;;;;;;;;;33.22;48.74;99201.13;1680917;84;20704;-76
2021/07/17 09:33:32;;;;;;;;;;;;;;;;;;;;;
2021/07/17 09:36:09;;;;;;;;;;;;;;;33.50;50.28;99211.90;1692129;84;20545;-73
2021/07/17 09:38:37;;;;;;;;;;;;;;;33.94;48.13;99205.16;1646747;84;20199;-73
2021/07/17 09:41:05;;;;;;;;;;;;;;;33.31;47.46;99202.20;1694589;84;21821;-76
2021/07/17 09:43:42;;;;;;;;;;;;;;;32.85;47.89;99206.88;1693650;84;20296;-74
2021/07/17 09:46:26;;;;;;;;;;;;;;;33.15;48.99;99206.19;1691532;84;20135;-73
2021/07/17 09:49:06;;;;;;;;;;;;;;;33.73;46.16;99200.68;1691856;84;20425;-74
2021/07/17 09:51:35;;;;;;;;;;;;;;;34.04;45.72;99200.64;1692831;84;20223;-75
2021/07/17 09:54:07;;;;;;;;;;;;;;;34.80;43.23;99202.38;1694963;84;21165;-74
2021/07/17 09:56:40;;;;;;;;;;;;;;;35.35;43.14;99199.52;1689751;84;20364;-72
2021/07/17 09:59:11;;;;;;;;;;;;;;;35.51;42.05;99203.57;1686242;83;20147;-73
2021/07/17 10:01:40;;;;;;;;;;;;;;;35.53;41.00;99203.31;1722772;83;20093;-74
2021/07/17 10:04:11;;;;;;;;;;;;;;;35.17;41.97;99196.30;1721892;83;20535;-74
2021/07/17 10:06:57;;;;;;;;;;;;;;;35.36;41.35;99198.91;1722525;83;20579;-73
2021/07/17 10:09:18;;;;;;;;;;;;;;;35.47;42.16;99189.69;1719380;82;20164;-74
2021/07/17 10:11:53;;;;;;;;;;;;;;;35.33;42.16;99191.38;1722649;83;20499;-73
2021/07/17 10:14:25;;;;;;;;;;;;;;;35.42;42.92;99193.77;1721925;82;20133;-74
2021/07/17 10:16:55;;;;;;;;;;;;;;;35.91;42.06;99188.92;1722324;83;20199;-75
2021/07/17 10:19:25;;;;;;;;;;;;;;;36.30;40.72;99192.79;1722698;83;20097;-73
2021/07/17 10:21:53;;;;;;;;;;;;;;;35.95;40.80;99183.27;1722631;83;20093;-74
2021/07/17 10:24:21;;;;;;;;;;;;;;;35.46;42.80;99175.56;1722531;83;20165;-73
2021/07/17 10:26:49;;;;;;;;;;;;;;;35.12;42.95;99171.09;1721232;83;20153;-73
2021/07/17 10:29:22;;;;;;;;;;;;;;;34.87;43.70;99174.36;1722256;83;20092;-74
2021/07/17 10:31:51;;;;;;;;;;;;;;;34.79;42.49;99172.94;1722582;83;21163;-73
2021/07/17 10:34:18;;;;;;;;;;;;;;;34.49;42.55;99166.27;1721818;83;20141;-75
2021/07/17 10:37:03;;;;;;;;;;;;;;;34.53;44.27;99163.43;1722557;83;20168;-76
2021/07/17 10:39:35;;;;;;;;;;;;;;;34.75;42.30;99162.45;1722512;83;20431;-73
2021/07/17 10:42:15;;;;;;;;;;;;;;;35.07;43.62;99159.02;1722042;83;20668;-73
2021/07/17 10:44:46;;;;;;;;;;;;;;;35.29;41.10;99152.41;1720697;83;20180;-73
2021/07/17 10:47:13;;;;;;;;;;;;;;;35.33;41.19;99148.14;1723112;83;20449;-72
2021/07/17 10:49:47;;;;;;;;;;;;;;;35.69;40.85;99143.19;1722083;83;20140;-74
2021/07/17 10:52:13;;;;;;;;;;;;;;;35.64;40.67;99138.91;1722067;83;20436;-74
2021/07/17 10:54:45;;;;;;;;;;;;;;;36.03;40.10;99140.75;1719831;83;20157;-74
2021/07/17 10:57:12;;;;;;;;;;;;;;;35.79;41.47;99146.33;1712495;83;21528;-74
2021/07/17 10:59:39;;;;;;;;;;;;;;;35.68;40.14;99138.84;1685321;84;20097;-76
2021/07/17 11:02:06;;;;;;;;;;;;;;;35.94;40.67;99143.39;1708408;84;20097;-74
2021/07/17 11:04:45;;;;;;;;;;;;;;;35.50;38.59;99131.64;1709795;84;20114;-72
2021/07/17 11:07:22;;;;;;;;;;;;;;;35.09;39.49;99125.95;1709874;84;20443;-74
2021/07/17 11:09:59;;;;;;;;;;;;;;;34.87;40.88;99123.41;1710892;84;21200;-72
2021/07/17 11:12:32;;;;;;;;;;;;;;;35.17;40.37;99119.61;1710939;83;20106;-73
2021/07/17 11:15:12;;;;;;;;;;;;;;;35.65;41.75;99116.77;1711041;83;20461;-69
2021/07/17 11:18:02;;;;;;;;;;;;;;;35.91;39.17;99109.34;1711645;83;20125;-70
2021/07/17 11:20:35;;;;;;;;;;;;;;;36.02;41.23;99104.28;1699874;83;20156;-74
2021/07/17 11:23:19;;;;;;;;;;;;;;;36.29;38.75;99101.83;1700252;84;21200;-73
2021/07/17 11:26:01;;;;;;;;;;;;;;;36.30;39.40;99092.21;1699323;84;20142;-73
2021/07/17 11:28:55;;;;;;;;;;;;;;;36.27;38.44;99092.48;1697048;84;20171;-74
2021/07/17 11:31:37;;;;;;;;;;;;;;;36.09;38.58;99081.59;1699907;84;20164;-72
2021/07/17 11:34:22;;;;;;;;;;;;;;;35.79;38.84;99079.33;1699727;84;20122;-72
2021/07/17 11:36:52;;;;;;;;;;;;;;;35.85;39.91;99081.78;1699856;84;20231;-73
2021/07/17 11:39:26;;;;;;;;;;;;;;;36.06;38.85;99079.84;1700045;84;20146;-74
2021/07/17 11:44:56;;;;;;;;;;;;;;;35.56;39.25;99072.67;1686604;84;20942;-73
2021/07/17 11:47:31;;;;;;;;;;;;;;;35.85;38.56;99074.80;1700333;84;20508;-72
2021/07/17 11:50:02;;;;;;;;;;;;;;;35.78;37.79;99078.55;1699594;84;21397;-72
2021/07/17 11:52:37;;;;;;;;;;;;;;;35.67;39.16;99068.86;1699066;84;20356;-72
2021/07/17 11:55:09;;;;;;;;;;;;;;;35.89;39.10;99074.08;1699274;84;20162;-73
2021/07/17 11:57:50;;;;;;;;;;;;;;;36.18;39.32;99066.40;1692073;84;20126;-73
2021/07/17 12:00:20;;;;;;;;;;;;;;;36.47;37.03;99061.59;1687265;83;20158;-78
2021/07/17 12:02:54;;;;;;;;;;;;;;;36.46;37.75;99067.64;1675385;83;21709;-72
2021/07/17 12:05:22;;;;;;;;;;;;;;;35.91;39.06;99062.48;1695112;83;20176;-72
2021/07/17 12:07:53;;;;;;;;;;;;;;;35.43;37.76;99053.67;1702557;83;20280;-71
2021/07/17 12:10:35;;;;;;;;;;;;;;;35.16;39.83;99049.72;1681129;83;20185;-71
2021/07/17 12:13:03;;;;;;;;;;;;;;;35.20;38.36;99043.43;1676544;85;20216;-71
2021/07/17 12:15:35;;;;;;;;;;;;;;;35.31;38.47;99039.80;1678087;85;21058;-72
2021/07/17 12:18:12;;;;;;;;;;;;;;;35.50;38.27;99037.34;1678286;85;20203;-74
2021/07/17 12:20:48;;;;;;;;;;;;;;;35.66;37.99;99016.45;1685378;83;20200;-71
2021/07/17 12:23:27;;;;;;;;;;;;;;;35.76;37.03;99027.17;1698008;83;20275;-71
2021/07/17 12:26:07;;;;;;;;;;;;;;;35.80;37.52;99022.30;1662667;83;20168;-73
2021/07/17 12:28:38;;;;;;;;;;;;;;;35.88;35.76;99018.70;1695703;83;21228;-73
2021/07/17 12:31:10;;;;;;;;;;;;;;;35.92;36.75;99007.61;1697610;83;20172;-72
2021/07/17 12:33:39;;;;;;;;;;;;;;;36.31;37.67;99005.79;1699656;83;20200;-72
2021/07/17 12:36:29;;;;;;;;;;;;;;;36.44;37.10;98996.04;1701408;83;20220;-71
2021/07/17 12:38:59;;;;;;;;;;;;;;;36.52;36.38;98999.41;1699756;83;20252;-71
2021/07/17 12:41:30;;;;;;;;;;;;;;;36.13;37.88;98989.51;1646559;83;21890;-71
2021/07/17 12:44:01;;;;;;;;;;;;;;;35.84;37.09;98990.86;1697084;83;20239;-73
2021/07/17 12:46:31;;;;;;;;;;;;;;;35.61;37.38;98978.69;1708531;83;20179;-72
2021/07/17 12:49:06;;;;;;;;;;;;;;;35.97;37.40;98982.56;1719261;83;20195;-72
2021/07/17 12:51:50;;;;;;;;;;;;;;;36.14;37.77;98992.48;1715649;83;20224;-73
2021/07/17 12:54:12;;;;;;;;;;;;;;;35.87;38.06;98996.98;1715313;83;21337;-74
2021/07/17 12:56:45;;;;;;;;;;;;;;;35.75;36.80;99000.49;1716108;83;20165;-72
2021/07/17 12:59:31;;;;;;;;;;;;;;;;;;;;;
2021/07/17 13:02:06;;;;;;;;;;;;;;;35.26;37.80;99000.48;1649284;83;20098;-70
2021/07/17 13:14:00;;;;;;;;;;;;;;;33.54;43.03;99064.42;1666580;85;20452;-71
2021/07/17 13:16:33;;;;;;;;;;;;;;;32.11;45.55;99078.63;1671010;85;20513;-74
2021/07/17 13:19:04;;;;;;;;;;;;;;;30.41;50.54;99102.09;1621298;85;20223;-68
2021/07/17 13:21:41;;;;;;;;;;;;;;;28.89;55.90;99104.98;1677777;85;20658;-70